createdAt,value
2018-03-17T00:00:06.275Z,3.76
2018-03-17T00:02:34.561Z,3.84
2018-03-17T00:05:05.907Z,3.76
2018-03-17T00:07:34.211Z,3.85
2018-03-17T00:10:07.565Z,3.82
2018-03-17T00:12:35.909Z,3.76
2018-03-17T00:15:06.331Z,3.70
2018-03-17T00:17:35.525Z,3.70
2018-03-17T00:20:07.667Z,3.63
2018-03-17T00:22:35.970Z,3.54
2018-03-17T00:25:06.375Z,3.59
2018-03-17T00:27:34.658Z,3.56
2018-03-17T00:30:05.925Z,3.24
2018-03-17T00:32:34.240Z,3.62
2018-03-17T00:35:08.763Z,3.55
2018-03-17T00:37:37.041Z,3.55
2018-03-17T00:40:06.301Z,3.50
2018-03-17T00:42:34.872Z,3.47
2018-03-17T00:45:05.941Z,3.48
2018-03-17T00:47:34.405Z,3.47
2018-03-17T00:50:09.462Z,3.40
2018-03-17T00:52:37.756Z,3.38
2018-03-17T00:55:06.601Z,3.35
2018-03-17T00:57:34.969Z,3.46
2018-03-17T01:00:06.005Z,3.36
2018-03-17T01:02:34.284Z,3.31
2018-03-17T01:05:09.606Z,3.31
2018-03-17T01:07:38.095Z,3.32
2018-03-17T01:10:06.397Z,3.11
2018-03-17T01:12:34.669Z,3.10
2018-03-17T01:15:06.210Z,3.12
2018-03-17T01:17:34.493Z,3.14
2018-03-17T01:20:06.197Z,3.11
2018-03-17T01:22:34.516Z,3.16
2018-03-17T01:25:06.216Z,3.15
2018-03-17T01:27:35.450Z,3.21
2018-03-17T01:30:06.899Z,3.07
2018-03-17T01:32:35.196Z,3.03
2018-03-17T01:35:06.745Z,2.74
2018-03-17T01:37:35.149Z,3.06
2018-03-17T01:40:07.195Z,2.97
2018-03-17T01:42:35.489Z,2.92
2018-03-17T01:45:07.531Z,3.02
2018-03-17T01:47:36.184Z,3.01
2018-03-17T01:50:06.099Z,3.04
2018-03-17T01:52:34.833Z,3.06
2018-03-17T01:55:06.634Z,2.94
2018-03-17T01:57:35.060Z,3.04
2018-03-17T02:00:06.440Z,2.93
2018-03-17T02:02:34.766Z,2.93
2018-03-17T02:05:06.749Z,2.96
2018-03-17T02:07:35.049Z,2.93
2018-03-17T02:10:07.178Z,2.84
2018-03-17T02:12:35.454Z,2.96
2018-03-17T02:15:07.641Z,2.89
2018-03-17T02:17:35.932Z,2.84
2018-03-17T02:20:07.862Z,2.80
2018-03-17T02:22:36.160Z,2.78
2018-03-17T02:25:06.236Z,2.58
2018-03-17T02:27:34.805Z,2.65
2018-03-17T02:30:06.711Z,2.72
2018-03-17T02:32:35.016Z,2.71
2018-03-17T02:35:06.947Z,2.67
2018-03-17T02:37:35.406Z,2.64
2018-03-17T02:40:06.052Z,2.50
2018-03-17T02:42:34.340Z,2.47
2018-03-17T02:45:07.658Z,2.47
2018-03-17T02:47:35.931Z,2.44
2018-03-17T02:50:07.507Z,2.41
2018-03-17T02:52:36.009Z,2.22
2018-03-17T02:55:07.783Z,2.31
2018-03-17T02:57:36.057Z,2.49
2018-03-17T03:00:07.999Z,2.47
2018-03-17T03:02:36.293Z,2.44
2018-03-17T03:05:06.418Z,2.43
2018-03-17T03:07:34.944Z,2.42
2018-03-17T03:10:06.259Z,2.32
2018-03-17T03:12:34.602Z,2.45
2018-03-17T03:15:06.249Z,2.40
2018-03-17T03:17:34.635Z,2.33
2018-03-17T03:20:05.997Z,2.25
2018-03-17T03:22:34.273Z,2.30
2018-03-17T03:25:05.591Z,2.26
2018-03-17T03:27:33.868Z,2.18
2018-03-17T03:30:08.615Z,2.18
2018-03-17T03:32:36.909Z,2.22
2018-03-17T03:35:06.620Z,2.22
2018-03-17T03:37:34.911Z,2.20
2018-03-17T03:40:06.210Z,2.06
2018-03-17T03:42:35.110Z,2.03
2018-03-17T03:45:06.382Z,2.05
2018-03-17T03:47:34.685Z,2.04
2018-03-17T03:50:06.282Z,2.02
2018-03-17T03:52:34.579Z,1.96
2018-03-17T03:55:09.820Z,1.86
2018-03-17T03:57:38.175Z,1.68
2018-03-17T04:00:06.465Z,1.71
2018-03-17T04:02:35.060Z,1.92
2018-03-17T04:05:06.238Z,2.04
2018-03-17T04:07:34.561Z,1.97
2018-03-17T04:10:08.697Z,1.84
2018-03-17T04:12:36.977Z,1.76
2018-03-17T04:15:06.805Z,1.76
2018-03-17T04:17:35.123Z,1.61
2018-03-17T04:20:07.171Z,1.72
2018-03-17T04:22:35.873Z,1.74
2018-03-17T04:25:07.986Z,1.75
2018-03-17T04:27:36.302Z,1.70
2018-03-17T04:30:06.425Z,1.64
2018-03-17T04:32:35.001Z,1.71
2018-03-17T04:35:06.217Z,1.76
2018-03-17T04:37:34.803Z,1.62
2018-03-17T04:40:08.901Z,1.57
2018-03-17T04:42:37.200Z,1.72
2018-03-17T04:45:06.724Z,1.75
2018-03-17T04:47:35.037Z,1.63
2018-03-17T04:50:06.239Z,1.70
2018-03-17T04:52:34.525Z,1.72
2018-03-17T04:55:09.665Z,1.69
2018-03-17T04:57:37.937Z,1.64
2018-03-17T05:00:06.236Z,1.48
2018-03-17T05:02:34.534Z,1.74
2018-03-17T05:05:06.200Z,1.76
2018-03-17T05:07:34.579Z,1.72
2018-03-17T05:10:09.553Z,1.80
2018-03-17T05:12:37.810Z,1.83
2018-03-17T05:15:06.364Z,1.85
2018-03-17T05:17:34.767Z,1.75
2018-03-17T05:20:06.271Z,1.77
2018-03-17T05:22:34.543Z,1.86
2018-03-17T05:25:09.988Z,1.71
2018-03-17T05:27:38.244Z,1.66
2018-03-17T05:30:06.766Z,1.63
2018-03-17T05:32:35.166Z,1.67
2018-03-17T05:35:06.253Z,1.70
2018-03-17T05:37:34.701Z,1.66
2018-03-17T05:40:06.607Z,1.53
2018-03-17T05:42:34.859Z,1.65
2018-03-17T05:45:10.542Z,1.73
2018-03-17T05:47:38.824Z,1.52
2018-03-17T05:50:07.097Z,1.44
2018-03-17T05:52:35.390Z,1.50
2018-03-17T05:55:07.312Z,1.55
2018-03-17T05:57:35.616Z,1.46
2018-03-17T06:00:07.671Z,1.41
2018-03-17T06:02:35.964Z,1.41
2018-03-17T06:05:07.299Z,1.40
2018-03-17T06:07:36.321Z,1.35
2018-03-17T06:10:08.439Z,1.36
2018-03-17T06:12:36.734Z,1.34
2018-03-17T06:15:06.257Z,1.48
2018-03-17T06:17:34.802Z,1.43
2018-03-17T06:20:08.032Z,1.21
2018-03-17T06:22:36.334Z,1.42
2018-03-17T06:25:06.511Z,1.50
2018-03-17T06:27:34.934Z,1.28
2018-03-17T06:30:07.066Z,1.27
2018-03-17T06:32:35.395Z,1.20
2018-03-17T06:35:06.894Z,1.24
2018-03-17T06:37:35.202Z,1.22
2018-03-17T06:40:06.811Z,1.18
2018-03-17T06:42:35.103Z,1.12
2018-03-17T06:45:06.317Z,1.21
2018-03-17T06:47:34.600Z,1.30
2018-03-17T06:50:06.129Z,1.30
2018-03-17T06:52:34.409Z,1.27
2018-03-17T06:55:07.691Z,1.28
2018-03-17T06:57:36.279Z,1.43
2018-03-17T07:00:07.484Z,1.43
2018-03-17T07:02:35.770Z,1.38
2018-03-17T07:05:07.009Z,1.19
2018-03-17T07:07:35.388Z,1.23
2018-03-17T07:10:08.076Z,1.03
2018-03-17T07:12:36.576Z,0.97
2018-03-17T07:15:08.333Z,1.13
2018-03-17T07:17:36.645Z,1.23
2018-03-17T07:20:06.685Z,1.09
2018-03-17T07:22:34.947Z,1.15
2018-03-17T07:25:07.441Z,1.13
2018-03-17T07:27:36.596Z,1.11
2018-03-17T07:30:06.720Z,1.05
2018-03-17T07:32:35.008Z,1.11
2018-03-17T07:35:06.355Z,0.99
2018-03-17T07:37:34.888Z,0.83
2018-03-17T07:40:09.853Z,0.99
2018-03-17T07:42:38.311Z,0.97
2018-03-17T07:45:07.474Z,1.00
2018-03-17T07:47:35.765Z,1.01
2018-03-17T07:50:08.011Z,0.87
2018-03-17T07:52:36.308Z,0.99
2018-03-17T07:55:06.418Z,0.98
2018-03-17T07:57:34.716Z,0.90
2018-03-17T08:00:06.303Z,0.85
2018-03-17T08:02:34.604Z,0.93
2018-03-17T08:05:06.065Z,0.82
2018-03-17T08:07:34.537Z,0.69
2018-03-17T08:10:09.568Z,0.98
2018-03-17T08:12:37.848Z,0.93
2018-03-17T08:15:06.438Z,0.38
2018-03-17T08:17:34.722Z,0.86
2018-03-17T08:20:06.378Z,0.95
2018-03-17T08:22:34.669Z,0.88
2018-03-17T08:25:08.566Z,0.74
2018-03-17T08:27:36.951Z,0.77
2018-03-17T08:30:06.802Z,0.79
2018-03-17T08:32:35.094Z,0.88
2018-03-17T08:35:07.253Z,0.97
2018-03-17T08:37:35.761Z,1.02
2018-03-17T08:40:06.806Z,0.75
2018-03-17T08:42:35.060Z,0.75
2018-03-17T08:45:06.460Z,0.82
2018-03-17T08:47:34.722Z,0.78
2018-03-17T08:50:06.141Z,0.90
2018-03-17T08:52:34.402Z,0.77
2018-03-17T08:55:09.338Z,0.78
2018-03-17T08:57:37.673Z,0.86
2018-03-17T09:00:06.761Z,0.87
2018-03-17T09:02:35.698Z,1.01
2018-03-17T09:05:07.452Z,0.89
2018-03-17T09:07:35.722Z,0.82
2018-03-17T09:10:09.169Z,0.79
2018-03-17T09:12:37.428Z,0.85
2018-03-17T09:15:06.475Z,0.92
2018-03-17T09:17:34.753Z,0.74
2018-03-17T09:20:06.266Z,1.01
2018-03-17T09:22:34.550Z,1.24
2018-03-17T09:25:09.574Z,0.94
2018-03-17T09:27:37.829Z,0.88
2018-03-17T09:30:07.146Z,0.89
2018-03-17T09:32:35.436Z,0.61
2018-03-17T09:35:07.438Z,0.58
2018-03-17T09:37:35.729Z,0.92
2018-03-17T09:40:07.712Z,1.05
2018-03-17T09:42:36.014Z,0.90
2018-03-17T09:45:08.106Z,1.04
2018-03-17T09:47:36.395Z,1.02
2018-03-17T09:50:07.663Z,1.01
2018-03-17T09:52:35.946Z,1.04
2018-03-17T09:55:07.128Z,1.03
2018-03-17T09:57:35.469Z,0.94
2018-03-17T10:00:07.567Z,1.06
2018-03-17T10:02:36.146Z,1.03
2018-03-17T10:05:06.330Z,0.96
2018-03-17T10:07:35.074Z,1.15
2018-03-17T10:10:05.529Z,0.90
2018-03-17T10:12:33.954Z,0.77
2018-03-17T10:15:09.331Z,1.06
2018-03-17T10:17:37.597Z,0.98
2018-03-17T10:20:05.865Z,1.17
2018-03-17T10:22:34.143Z,1.08
2018-03-17T10:25:06.089Z,0.89
2018-03-17T10:27:34.367Z,0.83
2018-03-17T10:30:06.512Z,0.80
2018-03-17T10:32:34.805Z,0.84
2018-03-17T10:35:05.856Z,0.74
2018-03-17T10:37:34.335Z,0.76
2018-03-17T10:40:05.746Z,0.75
2018-03-17T10:42:34.545Z,0.65
2018-03-17T10:45:06.353Z,0.76
2018-03-17T10:47:34.631Z,0.65
2018-03-17T10:50:05.945Z,0.36
2018-03-17T10:52:34.226Z,0.62
2018-03-17T10:55:08.261Z,0.70
2018-03-17T10:57:36.521Z,0.68
2018-03-17T11:00:05.635Z,0.77
2018-03-17T11:02:44.720Z,0.77
2018-03-17T11:05:13.078Z,0.72
2018-03-17T11:07:41.384Z,0.78
2018-03-17T11:10:09.653Z,0.70
2018-03-17T11:12:37.927Z,0.63
2018-03-17T11:15:06.183Z,0.80
2018-03-17T11:17:34.906Z,1.06
2018-03-17T11:20:06.423Z,1.13
2018-03-17T11:22:34.715Z,1.37
2018-03-17T11:25:05.742Z,1.10
2018-03-17T11:27:34.283Z,1.05
2018-03-17T11:30:06.307Z,0.86
2018-03-17T11:32:34.608Z,0.88
2018-03-17T11:35:05.588Z,0.94
2018-03-17T11:37:33.877Z,0.93
2018-03-17T11:40:07.144Z,0.87
2018-03-17T11:42:36.721Z,0.62
2018-03-17T11:45:05.704Z,0.53
2018-03-17T11:47:34.261Z,0.67
2018-03-17T11:50:05.628Z,0.85
2018-03-17T11:52:34.008Z,0.64
2018-03-17T11:55:05.465Z,0.60
2018-03-17T11:57:33.734Z,0.57
2018-03-17T12:00:07.923Z,0.46
2018-03-17T12:02:36.204Z,0.42
2018-03-17T12:05:05.937Z,0.31
2018-03-17T12:07:34.199Z,0.34
2018-03-17T12:10:08.175Z,0.16
2018-03-17T12:12:36.419Z,0.43
2018-03-17T12:15:05.930Z,0.45
2018-03-17T12:17:34.406Z,0.46
2018-03-17T12:20:07.720Z,0.49
2018-03-17T12:22:36.284Z,0.59
2018-03-17T12:25:06.087Z,0.45
2018-03-17T12:27:34.655Z,0.35
2018-03-17T12:30:06.822Z,0.36
2018-03-17T12:32:35.104Z,0.56
2018-03-17T12:35:06.724Z,0.64
2018-03-17T12:37:35.016Z,0.16
2018-03-17T12:40:07.236Z,0.33
2018-03-17T12:42:35.504Z,0.20
2018-03-17T12:45:05.692Z,0.44
2018-03-17T12:47:34.279Z,0.33
2018-03-17T12:50:07.129Z,0.35
2018-03-17T12:52:35.452Z,0.10
2018-03-17T12:55:07.372Z,0.15
2018-03-17T12:57:35.642Z,0.35
2018-03-17T13:00:08.796Z,0.31
2018-03-17T13:02:37.074Z,0.15
2018-03-17T13:05:06.478Z,0.22
2018-03-17T13:07:35.022Z,0.45
2018-03-17T13:10:07.097Z,0.49
2018-03-17T13:12:35.451Z,0.59
2018-03-17T13:15:06.674Z,0.46
2018-03-17T13:17:35.605Z,0.46
2018-03-17T13:20:07.096Z,0.36
2018-03-17T13:22:47.082Z,0.54
2018-03-17T13:25:15.363Z,0.50
2018-03-17T13:27:55.361Z,0.41
2018-03-17T13:30:23.637Z,0.13
2018-03-17T13:32:58.699Z,0.32
2018-03-17T13:35:38.732Z,0.30
2018-03-17T13:38:07.027Z,0.17
2018-03-17T13:40:42.202Z,0.13
2018-03-17T13:43:10.469Z,0.12
2018-03-17T13:45:38.758Z,0.21
2018-03-17T13:48:07.043Z,0.38
2018-03-17T13:50:35.593Z,0.30
2018-03-17T13:53:03.841Z,0.30
2018-03-17T13:55:32.282Z,0.29
2018-03-17T13:58:00.576Z,0.42
2018-03-17T14:00:28.976Z,0.38
2018-03-17T14:02:57.257Z,0.36
2018-03-17T14:05:26.406Z,0.32
2018-03-17T14:07:54.674Z,0.26
2018-03-17T14:10:22.970Z,0.17
2018-03-17T14:12:51.253Z,0.04
2018-03-17T14:15:19.547Z,-0.04
2018-03-17T14:17:48.017Z,0.01
2018-03-17T14:20:16.296Z,0.06
2018-03-17T14:22:45.294Z,-0.07
2018-03-17T14:25:13.755Z,0.16
2018-03-17T14:27:42.045Z,0.11
2018-03-17T14:30:10.313Z,0.10
2018-03-17T14:32:39.245Z,0.08
2018-03-17T14:35:07.599Z,0.03
2018-03-17T14:37:36.369Z,0.07
2018-03-17T14:40:11.453Z,0.08
2018-03-17T14:42:40.190Z,0.10
2018-03-17T14:45:09.346Z,0.08
2018-03-17T14:47:37.653Z,0.03
2018-03-17T14:50:05.974Z,0.05
2018-03-17T14:52:34.268Z,0.04
2018-03-17T14:55:05.765Z,-0.01
2018-03-17T14:57:34.113Z,0.13
2018-03-17T15:00:07.333Z,0.04
2018-03-17T15:02:35.654Z,0.18
2018-03-17T15:05:07.595Z,0.19
2018-03-17T15:07:35.969Z,0.11
2018-03-17T15:10:07.299Z,0.06
2018-03-17T15:12:35.600Z,0.25
2018-03-17T15:15:07.753Z,-0.02
2018-03-17T15:17:36.082Z,-0.08
2018-03-17T15:20:07.527Z,-0.05
2018-03-17T15:22:36.138Z,-0.15
2018-03-17T15:25:06.011Z,-0.23
2018-03-17T15:27:34.316Z,-0.11
2018-03-17T15:30:09.411Z,-0.09
2018-03-17T15:32:37.726Z,-0.13
2018-03-17T15:35:06.322Z,-0.02
2018-03-17T15:37:34.605Z,-0.14
2018-03-17T15:40:05.894Z,-0.05
2018-03-17T15:42:34.202Z,-0.15
2018-03-17T15:45:06.605Z,-0.23
2018-03-17T15:47:34.911Z,-0.15
2018-03-17T15:50:05.917Z,-0.20
2018-03-17T15:52:34.272Z,-0.32
2018-03-17T15:55:05.786Z,-0.14
2018-03-17T15:57:34.104Z,-0.28
2018-03-17T16:00:05.830Z,-0.38
2018-03-17T16:02:34.110Z,-0.35
2018-03-17T16:05:05.701Z,-0.30
2018-03-17T16:07:34.039Z,-0.26
2018-03-17T16:10:09.173Z,-0.27
2018-03-17T16:12:37.471Z,-0.30
2018-03-17T16:15:06.097Z,-0.40
2018-03-17T16:17:34.572Z,-0.39
2018-03-17T16:20:06.149Z,-0.33
2018-03-17T16:22:34.447Z,-0.30
2018-03-17T16:25:06.580Z,-0.23
2018-03-17T16:27:34.874Z,-0.36
2018-03-17T16:30:06.166Z,-0.28
2018-03-17T16:32:34.595Z,-0.26
2018-03-17T16:35:06.511Z,-0.20
2018-03-17T16:37:34.804Z,-0.40
2018-03-17T16:40:06.830Z,-0.36
2018-03-17T16:42:35.156Z,-0.44
2018-03-17T16:45:07.181Z,-0.38
2018-03-17T16:47:35.489Z,-0.30
2018-03-17T16:50:07.590Z,-0.31
2018-03-17T16:52:35.894Z,-0.39
2018-03-17T16:55:07.093Z,-0.42
2018-03-17T16:57:35.423Z,-0.43
2018-03-17T17:00:06.811Z,-0.61
2018-03-17T17:02:35.101Z,-0.57
2018-03-17T17:05:07.244Z,-0.51
2018-03-17T17:07:35.737Z,-0.53
2018-03-17T17:10:07.789Z,-0.54
2018-03-17T17:12:36.099Z,-0.57
2018-03-17T17:15:06.224Z,-0.41
2018-03-17T17:17:34.580Z,-0.36
2018-03-17T17:20:06.215Z,-0.43
2018-03-17T17:22:34.525Z,-0.54
2018-03-17T17:25:07.616Z,-0.98
2018-03-17T17:27:35.948Z,-0.59
2018-03-17T17:30:06.112Z,-0.49
2018-03-17T17:32:34.402Z,-0.38
2018-03-17T17:35:06.134Z,-0.47
2018-03-17T17:37:34.445Z,-0.38
2018-03-17T17:40:05.917Z,-0.38
2018-03-17T17:42:34.234Z,-0.45
2018-03-17T17:45:05.991Z,-0.70
2018-03-17T17:47:34.281Z,-0.73
2018-03-17T17:50:06.210Z,-0.92
2018-03-17T17:52:34.517Z,-0.81
2018-03-17T17:55:06.645Z,-0.93
2018-03-17T17:57:34.949Z,-0.81
2018-03-17T18:00:06.505Z,-0.72
2018-03-17T18:02:34.768Z,-0.77
2018-03-17T18:05:06.948Z,-0.77
2018-03-17T18:07:35.234Z,-0.75
2018-03-17T18:10:07.444Z,-0.75
2018-03-17T18:12:35.744Z,-0.81
2018-03-17T18:15:05.663Z,-0.91
2018-03-17T18:17:34.032Z,-0.73
2018-03-17T18:20:05.439Z,-0.83
2018-03-17T18:22:33.750Z,-0.71
2018-03-17T18:25:08.851Z,-0.69
2018-03-17T18:27:37.156Z,-0.59
2018-03-17T18:30:06.269Z,-0.61
2018-03-17T18:32:35.000Z,-0.75
2018-03-17T18:35:06.594Z,-0.82
2018-03-17T18:37:34.903Z,-0.53
2018-03-17T18:40:07.050Z,-0.61
2018-03-17T18:42:35.435Z,-0.55
2018-03-17T18:45:07.280Z,-0.73
2018-03-17T18:47:35.574Z,-0.58
2018-03-17T18:50:08.245Z,-0.97
2018-03-17T18:52:36.589Z,-0.71
2018-03-17T18:55:06.135Z,-0.59
2018-03-17T18:57:34.461Z,-0.73
2018-03-17T19:00:05.944Z,-0.73
2018-03-17T19:02:34.247Z,-0.57
2018-03-17T19:05:06.596Z,-0.59
2018-03-17T19:07:34.883Z,-0.64
2018-03-17T19:10:07.221Z,-0.72
2018-03-17T19:12:35.473Z,-0.74
2018-03-17T19:15:07.206Z,-0.88
2018-03-17T19:17:35.508Z,-0.90
2018-03-17T19:20:06.985Z,-0.93
2018-03-17T19:22:35.289Z,-0.91
2018-03-17T19:25:07.216Z,-0.91
2018-03-17T19:27:35.493Z,-0.91
2018-03-17T19:30:07.601Z,-1.03
2018-03-17T19:32:35.921Z,-0.78
2018-03-17T19:35:07.361Z,-0.73
2018-03-17T19:37:35.669Z,-0.77
2018-03-17T19:40:08.932Z,-0.69
2018-03-17T19:42:37.462Z,-0.65
2018-03-17T19:45:06.624Z,-0.74
2018-03-17T19:47:35.742Z,-0.77
2018-03-17T19:50:05.844Z,-0.81
2018-03-17T19:52:34.420Z,-0.71
2018-03-17T19:55:05.699Z,-0.99
2018-03-17T19:57:33.994Z,-0.87
2018-03-17T20:00:05.940Z,-0.75
2018-03-17T20:02:34.236Z,-0.71
2018-03-17T20:05:05.805Z,-0.76
2018-03-17T20:07:34.131Z,-0.67
2018-03-17T20:10:05.573Z,-0.61
2018-03-17T20:12:33.883Z,-0.74
2018-03-17T20:15:05.445Z,-0.62
2018-03-17T20:17:35.328Z,-0.73
2018-03-17T20:20:06.961Z,-0.82
2018-03-17T20:22:35.254Z,-0.65
2018-03-17T20:25:06.972Z,-0.61
2018-03-17T20:27:35.266Z,-0.80
2018-03-17T20:30:06.587Z,-0.66
2018-03-17T20:32:34.862Z,-0.81
2018-03-17T20:35:07.018Z,-0.72
2018-03-17T20:37:35.288Z,-0.70
2018-03-17T20:40:07.318Z,-0.58
2018-03-17T20:42:35.612Z,-0.56
2018-03-17T20:45:05.834Z,-0.66
2018-03-17T20:47:34.107Z,-0.64
2018-03-17T20:50:05.697Z,-0.54
2018-03-17T20:52:34.884Z,-0.61
2018-03-17T20:55:05.816Z,-0.60
2018-03-17T20:57:34.611Z,-0.58
2018-03-17T21:00:06.103Z,-0.70
2018-03-17T21:02:34.702Z,-0.56
2018-03-17T21:05:06.845Z,-0.55
2018-03-17T21:07:35.218Z,-0.59
2018-03-17T21:10:07.459Z,-0.44
2018-03-17T21:12:35.779Z,-0.44
2018-03-17T21:15:07.833Z,-0.53
2018-03-17T21:17:36.660Z,-0.58
2018-03-17T21:20:06.132Z,-0.51
2018-03-17T21:22:35.050Z,-0.54
2018-03-17T21:25:07.187Z,-0.51
2018-03-17T21:27:35.474Z,-0.70
2018-03-17T21:30:07.162Z,-0.53
2018-03-17T21:32:35.542Z,-0.56
2018-03-17T21:35:07.765Z,-0.54
2018-03-17T21:37:36.073Z,-0.51
2018-03-17T21:40:05.902Z,-0.28
2018-03-17T21:42:34.320Z,-0.36
2018-03-17T21:45:06.129Z,-0.46
2018-03-17T21:47:34.460Z,-0.53
2018-03-17T21:50:05.985Z,-0.56
2018-03-17T21:52:34.332Z,-0.57
2018-03-17T21:55:05.730Z,-0.58
2018-03-17T21:57:34.019Z,-0.61
2018-03-17T22:00:05.353Z,-0.61
2018-03-17T22:02:33.645Z,-0.86
2018-03-17T22:05:06.683Z,-0.85
2018-03-17T22:07:34.982Z,-0.73
2018-03-17T22:10:07.051Z,-0.51
2018-03-17T22:12:35.334Z,-0.63
2018-03-17T22:15:07.189Z,-0.63
2018-03-17T22:17:36.834Z,-0.48
2018-03-17T22:20:06.571Z,-0.42
2018-03-17T22:22:34.843Z,-0.54
2018-03-17T22:25:06.192Z,-0.54
2018-03-17T22:27:34.486Z,-0.59
2018-03-17T22:30:08.508Z,-0.66
2018-03-17T22:32:36.817Z,-0.55
2018-03-17T22:35:06.075Z,-0.40
2018-03-17T22:37:34.371Z,-0.48
2018-03-17T22:40:05.796Z,-0.45
2018-03-17T22:42:34.093Z,-0.56
2018-03-17T22:45:05.648Z,-0.51
2018-03-17T22:47:33.956Z,-0.43
2018-03-17T22:50:09.040Z,-0.40
2018-03-17T22:52:37.841Z,-0.43
2018-03-17T22:55:06.135Z,-0.46
2018-03-17T22:57:34.468Z,-0.49
2018-03-17T23:00:05.903Z,-0.52
2018-03-17T23:02:34.222Z,-0.50
2018-03-17T23:05:06.146Z,-0.52
2018-03-17T23:07:34.605Z,-0.63
2018-03-17T23:10:06.753Z,-0.60
2018-03-17T23:12:35.066Z,-0.52
2018-03-17T23:15:06.584Z,-0.59
2018-03-17T23:17:34.944Z,-0.47
2018-03-17T23:20:05.622Z,-0.50
2018-03-17T23:22:33.945Z,-0.49
2018-03-17T23:25:05.522Z,-0.42
2018-03-17T23:27:33.837Z,-0.44
2018-03-17T23:30:06.001Z,-0.48
2018-03-17T23:32:34.289Z,-0.42
2018-03-17T23:35:05.723Z,-0.41
2018-03-17T23:37:34.030Z,-0.46
2018-03-17T23:40:05.993Z,-0.45
2018-03-17T23:42:35.311Z,-0.32
2018-03-17T23:45:07.427Z,-0.37
2018-03-17T23:47:35.749Z,-0.44
2018-03-17T23:50:05.887Z,-0.43
2018-03-17T23:52:34.167Z,-0.40
2018-03-17T23:55:05.517Z,-0.38
2018-03-17T23:57:34.112Z,-0.29
